Time,TemperatureF,DewpointF,PressureIn,WindDirection,WindDirectionDegrees,WindSpeedMPH,WindSpeedGustMPH,Humidity,HourlyPrecipIn,Conditions,Clouds,dailyrainin,SolarRadiationWatts/m^2,SoftwareType,DateUTC
2013-05-04 00:01:00,51.2,44.9,30.32,ENE,60,4.0,5.0,79,0.00,,,0.00,0,Wunderground v.1.15,2013-05-04 04:01:00,
2013-05-04 00:04:00,51.3,45.0,30.32,ENE,58,8.0,8.0,79,0.00,,,0.00,0,Wunderground v.1.15,2013-05-04 04:04:00,
2013-05-04 00:07:00,51.3,44.7,30.32,ENE,59,4.0,8.0,78,0.00,,,0.00,0,Wunderground v.1.15,2013-05-04 04:07:00,
2013-05-04 00:08:00,51.2,44.6,30.32,East,95,5.0,8.0,78,0.00,,,0.00,0,Wunderground v.1.15,2013-05-04 04:08:00,
2013-05-04 00:09:00,51.2,44.9,30.32,East,82,5.0,8.0,79,0.00,,,0.00,0,Wunderground v.1.15,2013-05-04 04:09:00,
2013-05-04 00:15:00,51.0,44.7,30.32,ENE,61,5.0,5.0,79,0.00,,,0.00,0,Wunderground v.1.15,2013-05-04 04:15:00,
2013-05-04 00:21:00,50.9,44.9,30.32,ENE,61,3.0,5.0,80,0.00,,,0.00,0,Wunderground v.1.15,2013-05-04 04:21:00,
2013-05-04 00:27:00,50.7,44.8,30.32,NNE,25,1.0,7.0,80,0.00,,,0.00,0,Wunderground v.1.15,2013-05-04 04:27:00,
2013-05-04 00:33:00,49.8,44.2,30.31,NNE,21,4.0,5.0,81,0.00,,,0.00,0,Wunderground v.1.15,2013-05-04 04:33:00,
2013-05-04 00:39:00,49.2,44.3,30.31,NNE,30,3.0,5.0,83,0.00,,,0.00,0,Wunderground v.1.15,2013-05-04 04:39:00,
2013-05-04 00:44:00,49.2,44.6,30.31,NE,41,3.0,8.0,84,0.00,,,0.00,0,Wunderground v.1.15,2013-05-04 04:44:00,
2013-05-04 00:50:00,49.2,44.6,30.31,North,360,5.0,5.0,84,0.00,,,0.00,0,Wunderground v.1.15,2013-05-04 04:50:00,
2013-05-04 00:56:00,49.2,44.3,30.31,NE,38,1.0,5.0,83,0.00,,,0.00,0,Wunderground v.1.15,2013-05-04 04:56:00,
2013-05-04 01:02:00,48.8,44.2,30.31,North,11,5.0,5.0,84,0.00,,,0.00,0,Wunderground v.1.15,2013-05-04 05:02:00,
2013-05-04 01:08:00,48.6,44.3,30.31,NNE,22,2.0,5.0,85,0.00,,,0.00,0,Wunderground v.1.15,2013-05-04 05:08:00,
2013-05-04 01:14:00,48.7,44.4,30.30,NNE,16,4.0,6.0,85,0.00,,,0.00,0,Wunderground v.1.15,2013-05-04 05:14:00,
2013-05-04 01:20:00,48.5,44.2,30.30,North,360,3.0,3.0,85,0.00,,,0.00,0,Wunderground v.1.15,2013-05-04 05:20:00,
2013-05-04 01:26:00,48.1,43.8,30.30,NNE,24,3.0,5.0,85,0.00,,,0.00,0,Wunderground v.1.15,2013-05-04 05:26:00,
2013-05-04 01:32:00,47.4,43.4,30.30,North,5,3.0,3.0,86,0.00,,,0.00,0,Wunderground v.1.15,2013-05-04 05:32:00,
2013-05-04 01:38:00,47.1,43.7,30.29,NNW,348,1.0,4.0,88,0.00,,,0.00,0,Wunderground v.1.15,2013-05-04 05:38:00,
2013-05-04 01:43:00,46.8,43.4,30.29,NNE,20,3.0,3.0,88,0.00,,,0.00,0,Wunderground v.1.15,2013-05-04 05:43:00,
2013-05-04 01:48:00,46.6,43.5,30.29,NNE,22,1.0,4.0,89,0.00,,,0.00,0,Wunderground v.1.15,2013-05-04 05:48:00,
2013-05-04 01:54:00,46.6,43.5,30.29,NNE,13,0.0,3.0,89,0.00,,,0.00,0,Wunderground v.1.15,2013-05-04 05:54:00,
2013-05-04 01:59:00,46.6,43.5,30.29,NNE,26,5.0,5.0,89,0.00,,,0.00,0,Wunderground v.1.15,2013-05-04 05:59:00,
2013-05-04 02:04:00,46.9,43.8,30.29,NE,34,5.0,5.0,89,0.00,,,0.00,0,Wunderground v.1.15,2013-05-04 06:04:00,
2013-05-04 02:09:00,46.9,43.8,30.28,NE,36,3.0,5.0,89,0.00,,,0.00,0,Wunderground v.1.15,2013-05-04 06:09:00,
2013-05-04 02:14:00,46.9,43.8,30.28,NNE,19,3.0,6.0,89,0.00,,,0.00,0,Wunderground v.1.15,2013-05-04 06:14:00,
2013-05-04 02:19:00,46.6,43.5,30.28,North,10,6.0,6.0,89,0.00,,,0.00,0,Wunderground v.1.15,2013-05-04 06:19:00,
2013-05-04 02:24:00,46.4,43.3,30.28,North,11,2.0,4.0,89,0.00,,,0.00,0,Wunderground v.1.15,2013-05-04 06:24:00,
2013-05-04 02:29:00,46.2,43.4,30.28,NNE,21,3.0,5.0,90,0.00,,,0.00,0,Wunderground v.1.15,2013-05-04 06:29:00,
2013-05-04 02:34:00,46.0,43.2,30.28,North,5,2.0,3.0,90,0.00,,,0.00,0,Wunderground v.1.15,2013-05-04 06:34:00,
2013-05-04 02:39:00,45.8,43.0,30.28,North,355,3.0,3.0,90,0.00,,,0.00,0,Wunderground v.1.15,2013-05-04 06:39:00,
2013-05-04 02:44:00,45.8,43.3,30.27,North,360,2.0,5.0,91,0.00,,,0.00,0,Wunderground v.1.15,2013-05-04 06:44:00,
2013-05-04 02:49:00,45.8,43.3,30.27,NNE,18,1.0,6.0,91,0.00,,,0.00,0,Wunderground v.1.15,2013-05-04 06:49:00,
2013-05-04 02:54:00,45.7,43.2,30.27,NNE,13,3.0,5.0,91,0.00,,,0.00,0,Wunderground v.1.15,2013-05-04 06:54:00,
2013-05-04 02:59:00,45.6,43.1,30.27,North,5,1.0,6.0,91,0.00,,,0.00,0,Wunderground v.1.15,2013-05-04 06:59:00,
2013-05-04 03:04:00,45.5,43.0,30.28,NNE,22,0.0,4.0,91,0.00,,,0.00,0,Wunderground v.1.15,2013-05-04 07:04:00,
2013-05-04 03:09:00,45.4,42.9,30.27,NNE,13,3.0,4.0,91,0.00,,,0.00,0,Wunderground v.1.15,2013-05-04 07:09:00,
2013-05-04 03:14:00,45.2,42.7,30.28,NNE,26,3.0,5.0,91,0.00,,,0.00,0,Wunderground v.1.15,2013-05-04 07:14:00,
2013-05-04 03:19:00,45.1,42.9,30.28,NNE,25,1.0,5.0,92,0.00,,,0.00,0,Wunderground v.1.15,2013-05-04 07:19:00,
2013-05-04 03:24:00,45.1,42.9,30.28,North,5,1.0,3.0,92,0.00,,,0.00,0,Wunderground v.1.15,2013-05-04 07:24:00,
2013-05-04 03:29:00,45.1,42.9,30.28,North,5,1.0,5.0,92,0.00,,,0.00,0,Wunderground v.1.15,2013-05-04 07:29:00,
2013-05-04 03:34:00,45.0,42.8,30.28,North,5,3.0,3.0,92,0.00,,,0.00,0,Wunderground v.1.15,2013-05-04 07:34:00,
2013-05-04 03:40:00,44.9,42.7,30.28,North,5,1.0,2.0,92,0.00,,,0.00,0,Wunderground v.1.15,2013-05-04 07:40:00,
2013-05-04 03:45:00,44.8,42.6,30.28,North,5,0.0,3.0,92,0.00,,,0.00,0,Wunderground v.1.15,2013-05-04 07:45:00,
2013-05-04 03:50:00,44.9,42.7,30.28,North,5,2.0,2.0,92,0.00,,,0.00,0,Wunderground v.1.15,2013-05-04 07:50:00,
2013-05-04 03:55:00,44.8,42.6,30.28,North,5,3.0,5.0,92,0.00,,,0.00,0,Wunderground v.1.15,2013-05-04 07:55:00,
2013-05-04 04:00:00,44.7,42.5,30.28,North,5,2.0,2.0,92,0.00,,,0.00,0,Wunderground v.1.15,2013-05-04 08:00:00,
2013-05-04 04:05:00,44.7,42.5,30.28,North,5,2.0,4.0,92,0.00,,,0.00,0,Wunderground v.1.15,2013-05-04 08:05:00,
2013-05-04 04:10:00,44.8,42.6,30.28,North,5,0.0,2.0,92,0.00,,,0.00,0,Wunderground v.1.15,2013-05-04 08:10:00,
2013-05-04 04:15:00,44.9,42.7,30.28,North,9,0.0,3.0,92,0.00,,,0.00,0,Wunderground v.1.15,2013-05-04 08:15:00,
2013-05-04 04:20:00,45.0,42.8,30.28,North,10,1.0,2.0,92,0.00,,,0.00,0,Wunderground v.1.15,2013-05-04 08:20:00,
2013-05-04 04:25:00,45.1,42.9,30.28,North,11,3.0,5.0,92,0.00,,,0.00,0,Wunderground v.1.15,2013-05-04 08:25:00,
2013-05-04 04:30:00,45.4,43.2,30.28,NNE,18,0.0,3.0,92,0.00,,,0.00,0,Wunderground v.1.15,2013-05-04 08:30:00,
2013-05-04 04:35:00,45.5,43.3,30.28,NNW,336,0.0,5.0,92,0.00,,,0.00,0,Wunderground v.1.15,2013-05-04 08:35:00,
2013-05-04 04:40:00,45.6,43.4,30.28,NNE,28,3.0,4.0,92,0.00,,,0.00,0,Wunderground v.1.15,2013-05-04 08:40:00,
2013-05-04 04:45:00,45.8,43.3,30.27,North,5,4.0,5.0,91,0.00,,,0.00,0,Wunderground v.1.15,2013-05-04 08:45:00,
2013-05-04 04:50:00,45.7,43.2,30.27,NNE,26,3.0,4.0,91,0.00,,,0.00,0,Wunderground v.1.15,2013-05-04 08:50:00,
2013-05-04 04:55:00,45.8,43.3,30.28,NNE,18,5.0,6.0,91,0.00,,,0.00,0,Wunderground v.1.15,2013-05-04 08:55:00,
2013-05-04 05:00:00,45.8,43.3,30.27,NNE,30,4.0,5.0,91,0.00,,,0.00,0,Wunderground v.1.15,2013-05-04 09:00:00,
2013-05-04 05:05:00,45.9,43.4,30.27,North,11,3.0,7.0,91,0.00,,,0.00,0,Wunderground v.1.15,2013-05-04 09:05:00,
2013-05-04 05:10:00,45.8,43.3,30.27,NNE,32,3.0,3.0,91,0.00,,,0.00,0,Wunderground v.1.15,2013-05-04 09:10:00,
2013-05-04 05:15:00,46.0,43.2,30.27,NE,37,2.0,9.0,90,0.00,,,0.00,0,Wunderground v.1.15,2013-05-04 09:15:00,
2013-05-04 05:20:00,46.0,43.2,30.27,NNE,32,2.0,5.0,90,0.00,,,0.00,0,Wunderground v.1.15,2013-05-04 09:20:00,
2013-05-04 05:25:00,46.0,43.2,30.27,NNE,14,3.0,9.0,90,0.00,,,0.00,0,Wunderground v.1.15,2013-05-04 09:25:00,
2013-05-04 05:30:00,46.1,43.3,30.27,NNE,31,7.0,7.0,90,0.00,,,0.00,0,Wunderground v.1.15,2013-05-04 09:30:00,
2013-05-04 05:35:00,46.1,43.3,30.27,NNE,19,5.0,9.0,90,0.00,,,0.00,0,Wunderground v.1.15,2013-05-04 09:35:00,
2013-05-04 05:40:00,46.1,43.3,30.27,North,5,3.0,6.0,90,0.00,,,0.00,0,Wunderground v.1.15,2013-05-04 09:40:00,
2013-05-04 05:45:00,46.2,43.4,30.27,ENE,57,7.0,8.0,90,0.00,,,0.00,0,Wunderground v.1.15,2013-05-04 09:45:00,
2013-05-04 05:50:00,46.3,43.5,30.28,NE,56,5.0,5.0,90,0.00,,,0.00,0,Wunderground v.1.15,2013-05-04 09:50:00,
2013-05-04 05:55:00,46.3,43.2,30.28,North,10,5.0,9.0,89,0.00,,,0.00,0,Wunderground v.1.15,2013-05-04 09:55:00,
2013-05-04 06:00:00,46.3,43.2,30.28,NNE,12,0.0,3.0,89,0.00,,,0.00,0,Wunderground v.1.15,2013-05-04 10:00:00,
2013-05-04 06:05:00,46.3,43.2,30.28,NE,43,6.0,9.0,89,0.00,,,0.00,0,Wunderground v.1.15,2013-05-04 10:05:00,
2013-05-04 06:10:00,46.6,43.5,30.28,NE,34,4.0,5.0,89,0.00,,,0.00,0,Wunderground v.1.15,2013-05-04 10:10:00,
2013-05-04 06:15:00,46.7,43.6,30.28,NE,55,6.0,8.0,89,0.00,,,0.00,0,Wunderground v.1.15,2013-05-04 10:15:00,
2013-05-04 06:20:00,46.8,43.4,30.28,NE,37,6.0,6.0,88,0.00,,,0.00,0,Wunderground v.1.15,2013-05-04 10:20:00,
2013-05-04 06:25:00,46.9,43.5,30.28,NNE,21,6.0,10.0,88,0.00,,,0.00,5,Wunderground v.1.15,2013-05-04 10:25:00,
2013-05-04 06:30:00,46.9,43.5,30.29,NNE,30,5.0,5.0,88,0.00,,,0.00,5,Wunderground v.1.15,2013-05-04 10:30:00,
2013-05-04 06:35:00,47.0,43.6,30.29,North,355,3.0,7.0,88,0.00,,,0.00,7,Wunderground v.1.15,2013-05-04 10:35:00,
2013-05-04 06:40:00,47.0,43.9,30.28,NE,47,8.0,12.0,89,0.00,,,0.00,9,Wunderground v.1.15,2013-05-04 10:40:00,
2013-05-04 06:45:00,47.2,44.1,30.28,NE,38,5.0,12.0,89,0.00,,,0.00,12,Wunderground v.1.15,2013-05-04 10:45:00,
2013-05-04 06:50:00,47.4,44.0,30.29,NE,56,3.0,7.0,88,0.00,,,0.00,12,Wunderground v.1.15,2013-05-04 10:50:00,
2013-05-04 06:55:00,47.5,44.1,30.29,NE,36,6.0,10.0,88,0.00,,,0.00,12,Wunderground v.1.15,2013-05-04 10:55:00,
2013-05-04 07:00:00,47.7,44.3,30.29,ENE,58,2.0,5.0,88,0.00,,,0.00,16,Wunderground v.1.15,2013-05-04 11:00:00,
2013-05-04 07:05:00,47.6,44.2,30.29,East,82,6.0,9.0,88,0.00,,,0.00,25,Wunderground v.1.15,2013-05-04 11:05:00,
2013-05-04 07:10:00,47.6,44.5,30.29,NE,42,5.0,7.0,89,0.00,,,0.00,32,Wunderground v.1.15,2013-05-04 11:10:00,
2013-05-04 07:15:00,47.6,44.5,30.29,NE,38,7.0,8.0,89,0.00,,,0.00,33,Wunderground v.1.15,2013-05-04 11:15:00,
2013-05-04 07:20:00,47.5,44.4,30.29,ENE,65,7.0,8.0,89,0.00,,,0.00,37,Wunderground v.1.15,2013-05-04 11:20:00,
2013-05-04 07:25:00,47.6,44.5,30.29,NE,42,4.0,9.0,89,0.00,,,0.00,32,Wunderground v.1.15,2013-05-04 11:25:00,
2013-05-04 07:30:00,47.7,44.6,30.29,NE,49,5.0,8.0,89,0.00,,,0.00,33,Wunderground v.1.15,2013-05-04 11:30:00,
2013-05-04 07:35:00,47.7,44.6,30.29,ENE,66,5.0,11.0,89,0.00,,,0.00,40,Wunderground v.1.15,2013-05-04 11:35:00,
2013-05-04 07:40:00,47.8,44.7,30.30,NE,36,4.0,7.0,89,0.00,,,0.00,44,Wunderground v.1.15,2013-05-04 11:40:00,
2013-05-04 07:45:00,47.7,44.6,30.30,North,355,7.0,8.0,89,0.00,,,0.00,65,Wunderground v.1.15,2013-05-04 11:45:00,
2013-05-04 07:50:00,47.5,44.4,30.30,NE,42,9.0,12.0,89,0.00,,,0.00,67,Wunderground v.1.15,2013-05-04 11:50:00,
2013-05-04 07:55:00,47.4,44.6,30.30,East,82,5.0,12.0,90,0.00,,,0.00,70,Wunderground v.1.15,2013-05-04 11:55:00,
2013-05-04 08:00:00,47.5,44.7,30.30,NE,40,4.0,6.0,90,0.00,,,0.00,72,Wunderground v.1.15,2013-05-04 12:00:00,
2013-05-04 08:05:00,47.8,44.7,30.30,ENE,63,5.0,9.0,89,0.00,,,0.00,72,Wunderground v.1.15,2013-05-04 12:05:00,
2013-05-04 08:10:00,47.7,44.6,30.30,NE,40,8.0,8.0,89,0.00,,,0.00,46,Wunderground v.1.15,2013-05-04 12:10:00,
2013-05-04 08:15:00,47.9,44.8,30.30,NE,55,5.0,10.0,89,0.00,,,0.00,47,Wunderground v.1.15,2013-05-04 12:15:00,
2013-05-04 08:20:00,48.2,44.8,30.30,ENE,76,7.0,7.0,88,0.00,,,0.00,53,Wunderground v.1.15,2013-05-04 12:20:00,
2013-05-04 08:25:00,48.2,44.8,30.30,NE,40,4.0,10.0,88,0.00,,,0.00,58,Wunderground v.1.15,2013-05-04 12:25:00,
2013-05-04 08:30:00,48.0,44.9,30.30,NE,38,7.0,11.0,89,0.00,,,0.00,70,Wunderground v.1.15,2013-05-04 12:30:00,
2013-05-04 08:36:00,48.0,44.6,30.30,NE,39,4.0,12.0,88,0.00,,,0.00,76,Wunderground v.1.15,2013-05-04 12:36:00,
2013-05-04 08:41:00,48.2,44.8,30.30,East,82,6.0,9.0,88,0.00,,,0.00,76,Wunderground v.1.15,2013-05-04 12:41:00,
2013-05-04 08:46:00,48.5,45.1,30.30,NNE,22,9.0,10.0,88,0.00,,,0.00,79,Wunderground v.1.15,2013-05-04 12:46:00,
2013-05-04 08:51:00,48.5,45.1,30.30,ENE,69,9.0,9.0,88,0.00,,,0.00,95,Wunderground v.1.15,2013-05-04 12:51:00,
2013-05-04 08:56:00,48.7,45.3,30.30,NNE,13,4.0,14.0,88,0.00,,,0.00,123,Wunderground v.1.15,2013-05-04 12:56:00,
2013-05-04 09:01:00,48.7,45.3,30.30,NE,42,6.0,10.0,88,0.00,,,0.00,142,Wunderground v.1.15,2013-05-04 13:01:00,
2013-05-04 09:05:00,48.8,45.4,30.30,NE,40,6.0,11.0,88,0.00,,,0.00,125,Wunderground v.1.15,2013-05-04 13:05:00,
2013-05-04 09:10:00,48.7,45.3,30.30,NNE,33,2.0,7.0,88,0.00,,,0.00,125,Wunderground v.1.15,2013-05-04 13:10:00,
2013-05-04 09:15:00,48.7,45.6,30.30,ENE,70,11.0,11.0,89,0.00,,,0.00,137,Wunderground v.1.15,2013-05-04 13:15:00,
2013-05-04 09:20:00,48.6,45.5,30.30,NE,42,4.0,8.0,89,0.00,,,0.00,160,Wunderground v.1.15,2013-05-04 13:20:00,
2013-05-04 09:25:00,48.4,45.6,30.30,NE,38,4.0,8.0,90,0.00,,,0.00,146,Wunderground v.1.15,2013-05-04 13:25:00,
2013-05-04 09:30:00,48.3,45.5,30.29,NE,35,4.0,5.0,90,0.00,,,0.00,139,Wunderground v.1.15,2013-05-04 13:30:00,
2013-05-04 09:35:00,48.5,46.0,30.29,NE,53,3.0,8.0,91,0.00,,,0.00,153,Wunderground v.1.15,2013-05-04 13:35:00,
2013-05-04 09:40:00,48.6,45.8,30.29,NNE,28,7.0,7.0,90,0.00,,,0.00,169,Wunderground v.1.15,2013-05-04 13:40:00,
2013-05-04 09:45:00,48.7,46.2,30.29,NNE,26,3.0,8.0,91,0.00,,,0.00,178,Wunderground v.1.15,2013-05-04 13:45:00,
2013-05-04 09:50:00,48.6,46.1,30.29,NNE,29,4.0,6.0,91,0.00,,,0.00,185,Wunderground v.1.15,2013-05-04 13:50:00,
2013-05-04 09:55:00,48.7,46.5,30.29,NE,46,3.0,9.0,92,0.00,,,0.00,181,Wunderground v.1.15,2013-05-04 13:55:00,
2013-05-04 10:00:00,48.7,46.2,30.29,NNE,21,2.0,5.0,91,0.00,,,0.00,197,Wunderground v.1.15,2013-05-04 14:00:00,
2013-05-04 10:05:00,48.8,46.3,30.29,NNE,26,5.0,9.0,91,0.00,,,0.00,163,Wunderground v.1.15,2013-05-04 14:05:00,
2013-05-04 10:10:00,49.0,46.5,30.29,North,9,5.0,6.0,91,0.00,,,0.00,137,Wunderground v.1.15,2013-05-04 14:10:00,
2013-05-04 10:15:00,49.1,46.6,30.29,NNE,30,7.0,7.0,91,0.00,,,0.00,125,Wunderground v.1.15,2013-05-04 14:15:00,
2013-05-04 10:20:00,49.3,46.8,30.29,NNE,26,2.0,6.0,91,0.00,,,0.00,162,Wunderground v.1.15,2013-05-04 14:20:00,
2013-05-04 10:25:00,49.4,46.6,30.29,NE,45,6.0,7.0,90,0.00,,,0.00,230,Wunderground v.1.15,2013-05-04 14:25:00,
2013-05-04 10:30:00,49.9,46.8,30.28,NE,35,3.0,6.0,89,0.00,,,0.00,260,Wunderground v.1.15,2013-05-04 14:30:00,
2013-05-04 10:35:00,50.3,46.9,30.28,NNE,26,8.0,9.0,88,0.00,,,0.00,225,Wunderground v.1.15,2013-05-04 14:35:00,
2013-05-04 10:40:00,50.4,46.7,30.28,NE,46,6.0,10.0,87,0.00,,,0.00,225,Wunderground v.1.15,2013-05-04 14:40:00,
2013-05-04 10:46:00,50.8,47.4,30.28,North,10,8.0,10.0,88,0.00,,,0.00,209,Wunderground v.1.15,2013-05-04 14:46:00,
2013-05-04 10:51:00,50.8,47.1,30.28,NNE,30,4.0,6.0,87,0.00,,,0.00,199,Wunderground v.1.15,2013-05-04 14:51:00,
2013-05-04 10:56:00,51.2,47.5,30.29,NNE,15,6.0,9.0,87,0.00,,,0.00,225,Wunderground v.1.15,2013-05-04 14:56:00,
2013-05-04 11:01:00,51.4,47.4,30.28,ENE,77,1.0,5.0,86,0.00,,,0.00,239,Wunderground v.1.15,2013-05-04 15:01:00,
2013-05-04 11:06:00,51.4,47.7,30.28,NNE,24,4.0,7.0,87,0.00,,,0.00,223,Wunderground v.1.15,2013-05-04 15:06:00,
2013-05-04 11:11:00,51.5,47.8,30.28,ENE,63,5.0,8.0,87,0.00,,,0.00,236,Wunderground v.1.15,2013-05-04 15:11:00,
2013-05-04 11:16:00,51.7,48.3,30.28,NE,34,1.0,9.0,88,0.00,,,0.00,250,Wunderground v.1.15,2013-05-04 15:16:00,
2013-05-04 11:21:00,51.7,48.0,30.28,NNE,28,3.0,4.0,87,0.00,,,0.00,227,Wunderground v.1.15,2013-05-04 15:21:00,
2013-05-04 11:26:00,51.7,47.6,30.28,NE,36,3.0,8.0,86,0.00,,,0.00,229,Wunderground v.1.15,2013-05-04 15:26:00,
2013-05-04 11:31:00,52.1,48.0,30.28,NNE,33,5.0,8.0,86,0.00,,,0.00,251,Wunderground v.1.15,2013-05-04 15:31:00,
2013-05-04 11:36:00,52.7,48.3,30.27,ENE,69,8.0,9.0,85,0.00,,,0.00,318,Wunderground v.1.15,2013-05-04 15:36:00,
2013-05-04 11:41:00,53.0,48.3,30.28,NE,44,6.0,9.0,84,0.00,,,0.00,315,Wunderground v.1.15,2013-05-04 15:41:00,
2013-05-04 11:46:00,53.0,48.6,30.27,NE,48,8.0,11.0,85,0.00,,,0.00,285,Wunderground v.1.15,2013-05-04 15:46:00,
2013-05-04 11:51:00,53.6,48.6,30.27,ENE,67,5.0,8.0,83,0.00,,,0.00,408,Wunderground v.1.15,2013-05-04 15:51:00,
2013-05-04 11:56:00,54.1,48.7,30.27,NE,45,5.0,14.0,82,0.00,,,0.00,295,Wunderground v.1.15,2013-05-04 15:56:00,
2013-05-04 12:01:00,54.1,48.4,30.27,East,88,10.0,11.0,81,0.00,,,0.00,274,Wunderground v.1.15,2013-05-04 16:01:00,
2013-05-04 12:06:00,54.2,48.5,30.27,ENE,59,5.0,11.0,81,0.00,,,0.00,295,Wunderground v.1.15,2013-05-04 16:06:00,
2013-05-04 12:11:00,54.0,48.6,30.27,ENE,63,3.0,10.0,82,0.00,,,0.00,239,Wunderground v.1.15,2013-05-04 16:11:00,
2013-05-04 12:16:00,54.0,48.6,30.27,NNE,26,3.0,11.0,82,0.00,,,0.00,255,Wunderground v.1.15,2013-05-04 16:16:00,
2013-05-04 12:21:00,54.4,48.7,30.27,NE,36,6.0,10.0,81,0.00,,,0.00,213,Wunderground v.1.15,2013-05-04 16:21:00,
2013-05-04 12:26:00,54.4,48.7,30.27,NE,45,6.0,10.0,81,0.00,,,0.00,244,Wunderground v.1.15,2013-05-04 16:26:00,
2013-05-04 12:31:00,54.6,48.6,30.26,ENE,72,7.0,12.0,80,0.00,,,0.00,287,Wunderground v.1.15,2013-05-04 16:31:00,
2013-05-04 12:36:00,54.8,48.7,30.26,ENE,57,5.0,12.0,80,0.00,,,0.00,306,Wunderground v.1.15,2013-05-04 16:36:00,
2013-05-04 12:41:00,55.2,49.1,30.26,NE,39,4.0,9.0,80,0.00,,,0.00,295,Wunderground v.1.15,2013-05-04 16:41:00,
2013-05-04 12:46:00,54.8,48.7,30.26,NE,34,5.0,11.0,80,0.00,,,0.00,250,Wunderground v.1.15,2013-05-04 16:46:00,
2013-05-04 12:51:00,54.7,49.3,30.26,NE,49,4.0,6.0,82,0.00,,,0.00,248,Wunderground v.1.15,2013-05-04 16:51:00,
2013-05-04 12:56:00,55.1,49.0,30.26,NE,51,6.0,10.0,80,0.00,,,0.00,220,Wunderground v.1.15,2013-05-04 16:56:00,
2013-05-04 13:01:00,55.5,49.8,30.26,NNE,22,4.0,6.0,81,0.00,,,0.00,232,Wunderground v.1.15,2013-05-04 17:01:00,
2013-05-04 13:06:00,55.1,49.0,30.26,NNE,29,3.0,9.0,80,0.00,,,0.00,276,Wunderground v.1.15,2013-05-04 17:06:00,
2013-05-04 13:11:00,55.4,49.3,30.26,ENE,74,7.0,9.0,80,0.00,,,0.00,345,Wunderground v.1.15,2013-05-04 17:11:00,
2013-05-04 13:16:00,55.9,49.1,30.25,ENE,64,9.0,12.0,78,0.00,,,0.00,385,Wunderground v.1.15,2013-05-04 17:16:00,
2013-05-04 13:21:00,55.8,49.4,30.25,NNE,32,5.0,8.0,79,0.00,,,0.00,292,Wunderground v.1.15,2013-05-04 17:21:00,
2013-05-04 13:26:00,55.7,50.0,30.25,NNE,14,3.0,8.0,81,0.00,,,0.00,192,Wunderground v.1.15,2013-05-04 17:26:00,
2013-05-04 13:31:00,55.8,49.7,30.25,North,5,4.0,8.0,80,0.00,,,0.00,234,Wunderground v.1.15,2013-05-04 17:31:00,
2013-05-04 13:37:00,55.7,49.6,30.25,NNE,19,4.0,10.0,80,0.00,,,0.00,325,Wunderground v.1.15,2013-05-04 17:37:00,
2013-05-04 13:42:00,55.5,50.1,30.25,North,11,1.0,7.0,82,0.00,,,0.00,236,Wunderground v.1.15,2013-05-04 17:42:00,
2013-05-04 13:47:00,55.9,49.8,30.25,NE,50,7.0,9.0,80,0.00,,,0.00,359,Wunderground v.1.15,2013-05-04 17:47:00,
2013-05-04 13:52:00,56.2,49.8,30.25,NNE,17,5.0,10.0,79,0.00,,,0.00,369,Wunderground v.1.15,2013-05-04 17:52:00,
2013-05-04 13:57:00,56.5,50.1,30.24,ENE,76,9.0,10.0,79,0.00,,,0.00,258,Wunderground v.1.15,2013-05-04 17:57:00,
2013-05-04 14:02:00,56.4,50.0,30.24,NNE,30,5.0,7.0,79,0.00,,,0.00,169,Wunderground v.1.15,2013-05-04 18:02:00,
2013-05-04 14:07:00,56.3,50.2,30.24,NNE,17,6.0,8.0,80,0.00,,,0.00,162,Wunderground v.1.15,2013-05-04 18:07:00,
2013-05-04 14:12:00,56.0,49.9,30.24,NNE,28,6.0,10.0,80,0.00,,,0.00,163,Wunderground v.1.15,2013-05-04 18:12:00,
2013-05-04 14:17:00,56.2,50.1,30.24,NNE,13,3.0,11.0,80,0.00,,,0.00,179,Wunderground v.1.15,2013-05-04 18:17:00,
2013-05-04 14:22:00,56.4,50.3,30.24,NE,35,5.0,8.0,80,0.00,,,0.00,183,Wunderground v.1.15,2013-05-04 18:22:00,
2013-05-04 14:27:00,56.1,50.0,30.24,NNE,27,7.0,11.0,80,0.00,,,0.00,276,Wunderground v.1.15,2013-05-04 18:27:00,
2013-05-04 14:32:00,56.2,50.1,30.23,NE,55,8.0,12.0,80,0.00,,,0.00,348,Wunderground v.1.15,2013-05-04 18:32:00,
2013-05-04 14:37:00,56.8,50.4,30.23,NNE,18,6.0,13.0,79,0.00,,,0.00,422,Wunderground v.1.15,2013-05-04 18:37:00,
2013-05-04 14:42:00,57.1,50.6,30.23,NE,45,6.0,9.0,79,0.00,,,0.00,478,Wunderground v.1.15,2013-05-04 18:42:00,
2013-05-04 14:47:00,57.6,50.4,30.23,NE,52,4.0,11.0,77,0.00,,,0.00,434,Wunderground v.1.15,2013-05-04 18:47:00,
2013-05-04 14:52:00,58.4,51.2,30.22,NE,54,4.0,7.0,77,0.00,,,0.00,536,Wunderground v.1.15,2013-05-04 18:52:00,
2013-05-04 14:57:00,58.7,51.2,30.22,NE,36,6.0,11.0,76,0.00,,,0.00,585,Wunderground v.1.15,2013-05-04 18:57:00,
2013-05-04 15:02:00,58.9,51.0,30.22,NE,41,7.0,10.0,75,0.00,,,0.00,355,Wunderground v.1.15,2013-05-04 19:02:00,
2013-05-04 15:07:00,58.6,51.1,30.22,NNE,22,10.0,10.0,76,0.00,,,0.00,288,Wunderground v.1.15,2013-05-04 19:07:00,
2013-05-04 15:12:00,58.9,51.0,30.22,East,88,9.0,12.0,75,0.00,,,0.00,327,Wunderground v.1.15,2013-05-04 19:12:00,
2013-05-04 15:17:00,59.1,51.2,30.22,East,84,5.0,12.0,75,0.00,,,0.00,290,Wunderground v.1.15,2013-05-04 19:17:00,
2013-05-04 15:22:00,59.5,51.2,30.22,ENE,71,8.0,10.0,74,0.00,,,0.00,239,Wunderground v.1.15,2013-05-04 19:22:00,
2013-05-04 15:27:00,59.4,51.5,30.22,ENE,71,8.0,10.0,75,0.00,,,0.00,239,Wunderground v.1.15,2013-05-04 19:27:00,
2013-05-04 15:32:00,59.5,51.6,30.22,ENE,57,7.0,11.0,75,0.00,,,0.00,214,Wunderground v.1.15,2013-05-04 19:32:00,
2013-05-04 15:37:00,59.4,51.5,30.22,NE,46,10.0,12.0,75,0.00,,,0.00,265,Wunderground v.1.15,2013-05-04 19:37:00,
2013-05-04 15:42:00,59.2,51.3,30.21,NE,36,7.0,11.0,75,0.00,,,0.00,250,Wunderground v.1.15,2013-05-04 19:42:00,
2013-05-04 15:47:00,58.8,51.6,30.21,NNE,17,11.0,12.0,77,0.00,,,0.00,334,Wunderground v.1.15,2013-05-04 19:47:00,
2013-05-04 15:52:00,58.7,51.9,30.21,NE,50,4.0,9.0,78,0.00,,,0.00,225,Wunderground v.1.15,2013-05-04 19:52:00,
2013-05-04 15:57:00,58.9,51.7,30.21,NE,46,5.0,11.0,77,0.00,,,0.00,255,Wunderground v.1.15,2013-05-04 19:57:00,
2013-05-04 16:02:00,58.8,51.6,30.21,ENE,69,9.0,12.0,77,0.00,,,0.00,234,Wunderground v.1.15,2013-05-04 20:02:00,
2013-05-04 16:07:00,59.0,51.8,30.21,NE,55,9.0,12.0,77,0.00,,,0.00,243,Wunderground v.1.15,2013-05-04 20:07:00,
2013-05-04 16:12:00,59.2,52.0,30.21,NNE,17,7.0,8.0,77,0.00,,,0.00,230,Wunderground v.1.15,2013-05-04 20:12:00,
2013-05-04 16:17:00,59.3,52.1,30.21,ENE,67,10.0,12.0,77,0.00,,,0.00,283,Wunderground v.1.15,2013-05-04 20:17:00,
2013-05-04 16:22:00,59.4,52.2,30.20,NE,42,6.0,11.0,77,0.00,,,0.00,211,Wunderground v.1.15,2013-05-04 20:22:00,
2013-05-04 16:27:00,59.4,52.2,30.20,East,83,7.0,11.0,77,0.00,,,0.00,123,Wunderground v.1.15,2013-05-04 20:27:00,
2013-05-04 16:32:00,59.3,52.4,30.20,NE,36,6.0,11.0,78,0.00,,,0.00,220,Wunderground v.1.15,2013-05-04 20:32:00,
2013-05-04 16:38:00,59.3,52.4,30.20,NE,34,6.0,11.0,78,0.00,,,0.00,339,Wunderground v.1.15,2013-05-04 20:38:00,
2013-05-04 16:42:00,59.8,52.6,30.20,ENE,77,3.0,8.0,77,0.00,,,0.00,258,Wunderground v.1.15,2013-05-04 20:42:00,
2013-05-04 16:47:00,59.9,52.3,30.20,ENE,60,9.0,12.0,76,0.00,,,0.00,190,Wunderground v.1.15,2013-05-04 20:47:00,
2013-05-04 16:53:00,60.1,52.5,30.20,ENE,74,8.0,9.0,76,0.00,,,0.00,156,Wunderground v.1.15,2013-05-04 20:53:00,
2013-05-04 16:58:00,59.9,52.3,30.20,ENE,66,8.0,10.0,76,0.00,,,0.00,185,Wunderground v.1.15,2013-05-04 20:58:00,
2013-05-04 17:03:00,60.1,52.5,30.20,NE,42,8.0,10.0,76,0.00,,,0.00,211,Wunderground v.1.15,2013-05-04 21:03:00,
2013-05-04 17:08:00,60.4,52.4,30.20,ENE,74,8.0,10.0,75,0.00,,,0.00,165,Wunderground v.1.15,2013-05-04 21:08:00,
2013-05-04 17:13:00,60.3,52.3,30.20,ENE,67,11.0,12.0,75,0.00,,,0.00,174,Wunderground v.1.15,2013-05-04 21:13:00,
2013-05-04 17:18:00,60.1,52.1,30.19,ENE,60,9.0,13.0,75,0.00,,,0.00,200,Wunderground v.1.15,2013-05-04 21:18:00,
2013-05-04 17:23:00,60.3,52.3,30.19,ENE,64,10.0,11.0,75,0.00,,,0.00,169,Wunderground v.1.15,2013-05-04 21:23:00,
2013-05-04 17:28:00,60.2,52.2,30.19,ENE,63,9.0,11.0,75,0.00,,,0.00,163,Wunderground v.1.15,2013-05-04 21:28:00,
2013-05-04 17:33:00,60.2,51.9,30.19,East,81,3.0,10.0,74,0.00,,,0.00,118,Wunderground v.1.15,2013-05-04 21:33:00,
2013-05-04 17:38:00,60.2,52.2,30.20,East,94,6.0,10.0,75,0.00,,,0.00,98,Wunderground v.1.15,2013-05-04 21:38:00,
2013-05-04 17:43:00,60.1,52.1,30.20,ENE,65,0.0,9.0,75,0.00,,,0.00,142,Wunderground v.1.15,2013-05-04 21:43:00,
2013-05-04 17:48:00,60.2,52.6,30.20,East,87,5.0,9.0,76,0.00,,,0.00,125,Wunderground v.1.15,2013-05-04 21:48:00,
2013-05-04 17:53:00,60.0,52.4,30.20,East,98,6.0,9.0,76,0.00,,,0.00,91,Wunderground v.1.15,2013-05-04 21:53:00,
2013-05-04 17:58:00,60.1,52.1,30.19,ENE,60,4.0,11.0,75,0.00,,,0.00,141,Wunderground v.1.15,2013-05-04 21:58:00,
2013-05-04 18:03:00,60.0,51.7,30.19,ENE,78,2.0,10.0,74,0.00,,,0.00,156,Wunderground v.1.15,2013-05-04 22:03:00,
2013-05-04 18:08:00,60.0,52.1,30.19,ESE,114,7.0,10.0,75,0.00,,,0.00,102,Wunderground v.1.15,2013-05-04 22:08:00,
2013-05-04 18:13:00,59.9,52.0,30.19,ESE,108,4.0,13.0,75,0.00,,,0.00,111,Wunderground v.1.15,2013-05-04 22:13:00,
2013-05-04 18:18:00,60.0,52.1,30.20,East,93,6.0,13.0,75,0.00,,,0.00,88,Wunderground v.1.15,2013-05-04 22:18:00,
2013-05-04 18:23:00,60.2,52.2,30.19,ENE,64,7.0,7.0,75,0.00,,,0.00,72,Wunderground v.1.15,2013-05-04 22:23:00,
2013-05-04 18:28:00,59.9,52.0,30.19,ENE,69,3.0,12.0,75,0.00,,,0.00,83,Wunderground v.1.15,2013-05-04 22:28:00,
2013-05-04 18:33:00,59.9,52.0,30.19,NE,56,5.0,9.0,75,0.00,,,0.00,70,Wunderground v.1.15,2013-05-04 22:33:00,
2013-05-04 18:38:00,59.8,51.9,30.20,East,101,5.0,9.0,75,0.00,,,0.00,42,Wunderground v.1.15,2013-05-04 22:38:00,
2013-05-04 18:43:00,59.6,52.0,30.20,East,86,6.0,6.0,76,0.00,,,0.00,28,Wunderground v.1.15,2013-05-04 22:43:00,
2013-05-04 18:48:00,59.5,52.3,30.20,East,84,1.0,7.0,77,0.00,,,0.00,19,Wunderground v.1.15,2013-05-04 22:48:00,
2013-05-04 18:53:00,59.5,51.9,30.20,ENE,78,5.0,5.0,76,0.00,,,0.00,30,Wunderground v.1.15,2013-05-04 22:53:00,
2013-05-04 18:58:00,59.5,51.9,30.20,ENE,64,2.0,9.0,76,0.00,,,0.00,47,Wunderground v.1.15,2013-05-04 22:58:00,
2013-05-04 19:03:00,59.5,51.9,30.20,NE,45,4.0,8.0,76,0.00,,,0.00,51,Wunderground v.1.15,2013-05-04 23:03:00,
2013-05-04 19:08:00,59.4,52.2,30.20,ENE,65,4.0,8.0,77,0.00,,,0.00,53,Wunderground v.1.15,2013-05-04 23:08:00,
2013-05-04 19:13:00,59.5,52.3,30.20,ENE,67,3.0,7.0,77,0.00,,,0.00,28,Wunderground v.1.15,2013-05-04 23:13:00,
2013-05-04 19:18:00,59.4,52.2,30.20,ENE,72,3.0,8.0,77,0.00,,,0.00,37,Wunderground v.1.15,2013-05-04 23:18:00,
2013-05-04 19:23:00,59.3,52.1,30.20,East,82,5.0,7.0,77,0.00,,,0.00,26,Wunderground v.1.15,2013-05-04 23:23:00,
2013-05-04 19:28:00,59.3,52.1,30.20,ENE,62,1.0,7.0,77,0.00,,,0.00,19,Wunderground v.1.15,2013-05-04 23:28:00,
2013-05-04 19:33:00,59.2,52.0,30.20,NE,46,5.0,5.0,77,0.00,,,0.00,14,Wunderground v.1.15,2013-05-04 23:33:00,
2013-05-04 19:38:00,59.1,51.9,30.20,ENE,66,2.0,7.0,77,0.00,,,0.00,11,Wunderground v.1.15,2013-05-04 23:38:00,
2013-05-04 19:43:00,59.1,51.9,30.20,ENE,57,3.0,5.0,77,0.00,,,0.00,11,Wunderground v.1.15,2013-05-04 23:43:00,
2013-05-04 19:48:00,59.1,52.2,30.20,ENE,63,3.0,7.0,78,0.00,,,0.00,14,Wunderground v.1.15,2013-05-04 23:48:00,
2013-05-04 19:53:00,59.1,52.2,30.20,NE,51,4.0,5.0,78,0.00,,,0.00,7,Wunderground v.1.15,2013-05-04 23:53:00,
2013-05-04 19:58:00,59.1,52.2,30.20,East,83,1.0,6.0,78,0.00,,,0.00,5,Wunderground v.1.15,2013-05-04 23:58:00,
2013-05-04 20:03:00,59.0,52.1,30.20,East,87,1.0,3.0,78,0.00,,,0.00,5,Wunderground v.1.15,2013-05-05 00:03:00,
2013-05-04 20:08:00,58.7,52.2,30.20,NNE,22,3.0,4.0,79,0.00,,,0.00,0,Wunderground v.1.15,2013-05-05 00:08:00,
2013-05-04 20:13:00,57.1,51.7,30.20,NNE,20,2.0,4.0,82,0.00,,,0.00,0,Wunderground v.1.15,2013-05-05 00:13:00,
2013-05-04 20:18:00,56.1,51.3,30.20,NNE,26,3.0,4.0,84,0.00,,,0.00,0,Wunderground v.1.15,2013-05-05 00:18:00,
2013-05-04 20:23:00,55.6,51.2,30.20,NE,45,4.0,4.0,85,0.00,,,0.00,0,Wunderground v.1.15,2013-05-05 00:23:00,
2013-05-04 20:28:00,56.0,51.2,30.20,North,355,2.0,6.0,84,0.00,,,0.00,0,Wunderground v.1.15,2013-05-05 00:28:00,
2013-05-04 20:33:00,56.5,51.1,30.20,NE,48,0.0,7.0,82,0.00,,,0.00,0,Wunderground v.1.15,2013-05-05 00:33:00,
2013-05-04 20:38:00,55.2,50.4,30.20,North,355,0.0,7.0,84,0.00,,,0.00,0,Wunderground v.1.15,2013-05-05 00:38:00,
2013-05-04 20:43:00,55.1,50.7,30.21,NNE,32,1.0,3.0,85,0.00,,,0.00,0,Wunderground v.1.15,2013-05-05 00:43:00,
2013-05-04 20:48:00,55.4,50.6,30.21,NNE,29,2.0,5.0,84,0.00,,,0.00,0,Wunderground v.1.15,2013-05-05 00:48:00,
2013-05-04 20:53:00,56.3,50.9,30.22,ENE,66,3.0,4.0,82,0.00,,,0.00,0,Wunderground v.1.15,2013-05-05 00:53:00,
2013-05-04 20:58:00,56.4,50.6,30.22,ENE,68,1.0,4.0,81,0.00,,,0.00,0,Wunderground v.1.15,2013-05-05 00:58:00,
2013-05-04 21:03:00,56.2,50.4,30.22,ENE,66,2.0,4.0,81,0.00,,,0.00,0,Wunderground v.1.15,2013-05-05 01:03:00,
2013-05-04 21:08:00,56.4,50.6,30.22,NE,50,0.0,6.0,81,0.00,,,0.00,0,Wunderground v.1.15,2013-05-05 01:08:00,
2013-05-04 21:13:00,56.2,50.1,30.22,ENE,65,4.0,8.0,80,0.00,,,0.00,0,Wunderground v.1.15,2013-05-05 01:13:00,
2013-05-04 21:18:00,56.5,50.1,30.22,NE,47,4.0,8.0,79,0.00,,,0.00,0,Wunderground v.1.15,2013-05-05 01:18:00,
2013-05-04 21:23:00,56.2,49.8,30.22,NE,52,2.0,3.0,79,0.00,,,0.00,0,Wunderground v.1.15,2013-05-05 01:23:00,
2013-05-04 21:28:00,55.9,49.8,30.23,ENE,71,2.0,3.0,80,0.00,,,0.00,0,Wunderground v.1.15,2013-05-05 01:28:00,
2013-05-04 21:33:00,55.8,49.7,30.23,ENE,69,1.0,4.0,80,0.00,,,0.00,0,Wunderground v.1.15,2013-05-05 01:33:00,
2013-05-04 21:38:00,55.8,49.7,30.23,ENE,63,5.0,6.0,80,0.00,,,0.00,0,Wunderground v.1.15,2013-05-05 01:38:00,
2013-05-04 21:43:00,55.7,49.3,30.23,ENE,57,2.0,6.0,79,0.00,,,0.00,0,Wunderground v.1.15,2013-05-05 01:43:00,
2013-05-04 21:48:00,55.6,49.2,30.24,NE,36,3.0,6.0,79,0.00,,,0.00,0,Wunderground v.1.15,2013-05-05 01:48:00,
2013-05-04 21:53:00,55.4,49.0,30.23,East,100,5.0,5.0,79,0.00,,,0.00,0,Wunderground v.1.15,2013-05-05 01:53:00,
2013-05-04 21:58:00,55.4,49.0,30.23,ENE,57,4.0,8.0,79,0.00,,,0.00,0,Wunderground v.1.15,2013-05-05 01:58:00,
2013-05-04 22:03:00,55.4,49.0,30.23,NE,56,3.0,8.0,79,0.00,,,0.00,0,Wunderground v.1.15,2013-05-05 02:03:00,
2013-05-04 22:08:00,55.3,48.9,30.23,ENE,61,3.0,8.0,79,0.00,,,0.00,0,Wunderground v.1.15,2013-05-05 02:08:00,
2013-05-04 22:13:00,55.1,48.7,30.23,ENE,58,7.0,8.0,79,0.00,,,0.00,0,Wunderground v.1.15,2013-05-05 02:13:00,
2013-05-04 22:18:00,54.8,48.4,30.23,ENE,67,2.0,8.0,79,0.00,,,0.00,0,Wunderground v.1.15,2013-05-05 02:18:00,
2013-05-04 22:23:00,54.6,48.2,30.23,ENE,58,3.0,6.0,79,0.00,,,0.00,0,Wunderground v.1.15,2013-05-05 02:23:00,
2013-05-04 22:28:00,54.4,48.4,30.23,NE,51,3.0,6.0,80,0.00,,,0.00,0,Wunderground v.1.15,2013-05-05 02:28:00,
2013-05-04 22:33:00,54.2,48.2,30.23,ENE,73,2.0,7.0,80,0.00,,,0.00,0,Wunderground v.1.15,2013-05-05 02:33:00,
2013-05-04 22:38:00,54.0,48.0,30.23,East,89,1.0,7.0,80,0.00,,,0.00,0,Wunderground v.1.15,2013-05-05 02:38:00,
2013-05-04 22:43:00,53.9,47.9,30.23,NE,50,3.0,6.0,80,0.00,,,0.00,0,Wunderground v.1.15,2013-05-05 02:43:00,
2013-05-04 22:48:00,53.9,47.5,30.23,NE,52,4.0,8.0,79,0.00,,,0.00,0,Wunderground v.1.15,2013-05-05 02:48:00,
2013-05-04 22:53:00,53.9,47.5,30.23,ENE,78,8.0,8.0,79,0.00,,,0.00,0,Wunderground v.1.15,2013-05-05 02:53:00,
2013-05-04 22:58:00,53.9,47.2,30.23,ENE,61,3.0,9.0,78,0.00,,,0.00,0,Wunderground v.1.15,2013-05-05 02:58:00,
2013-05-04 23:03:00,53.6,47.2,30.23,ENE,58,3.0,5.0,79,0.00,,,0.00,0,Wunderground v.1.15,2013-05-05 03:03:00,
2013-05-04 23:08:00,53.3,47.0,30.22,ENE,57,2.0,6.0,79,0.00,,,0.00,0,Wunderground v.1.15,2013-05-05 03:08:00,
2013-05-04 23:13:00,53.3,47.0,30.22,NE,39,4.0,8.0,79,0.00,,,0.00,0,Wunderground v.1.15,2013-05-05 03:13:00,
2013-05-04 23:18:00,53.2,46.9,30.22,ENE,69,3.0,8.0,79,0.00,,,0.00,0,Wunderground v.1.15,2013-05-05 03:18:00,
2013-05-04 23:23:00,53.1,46.8,30.22,NE,49,4.0,7.0,79,0.00,,,0.00,0,Wunderground v.1.15,2013-05-05 03:23:00,
2013-05-04 23:28:00,53.0,46.7,30.22,ENE,65,4.0,8.0,79,0.00,,,0.00,0,Wunderground v.1.15,2013-05-05 03:28:00,
2013-05-04 23:33:00,53.0,46.7,30.21,ENE,60,4.0,8.0,79,0.00,,,0.00,0,Wunderground v.1.15,2013-05-05 03:33:00,
2013-05-04 23:38:00,52.8,46.5,30.21,NNE,28,2.0,8.0,79,0.00,,,0.00,0,Wunderground v.1.15,2013-05-05 03:38:00,
2013-05-04 23:43:00,51.5,45.9,30.21,NNE,24,0.0,4.0,81,0.00,,,0.00,0,Wunderground v.1.15,2013-05-05 03:43:00,
2013-05-04 23:48:00,50.9,45.9,30.22,ENE,67,0.0,4.0,83,0.00,,,0.00,0,Wunderground v.1.15,2013-05-05 03:48:00,
2013-05-04 23:53:00,50.8,45.8,30.22,NE,54,1.0,1.0,83,0.00,,,0.00,0,Wunderground v.1.15,2013-05-05 03:53:00,
2013-05-04 23:59:00,49.7,45.4,30.22,NE,54,0.0,2.0,85,0.00,,,0.00,0,Wunderground v.1.15,2013-05-05 03:59:00,